sensor_id;sensor_type;location;lat;lon;timestamp;temperature;humidity
11304;DHT22;5707;49.588;12.148;2022-10-16T00:00:28;14.60;99.90
11304;DHT22;5707;49.588;12.148;2022-10-16T00:03:06;14.60;99.90
11304;DHT22;5707;49.588;12.148;2022-10-16T00:05:44;14.60;99.90
11304;DHT22;5707;49.588;12.148;2022-10-16T00:08:23;14.60;99.90
11304;DHT22;5707;49.588;12.148;2022-10-16T00:11:02;14.60;99.90
11304;DHT22;5707;49.588;12.148;2022-10-16T00:13:40;14.50;99.90
11304;DHT22;5707;49.588;12.148;2022-10-16T00:16:17;14.60;99.90
11304;DHT22;5707;49.588;12.148;2022-10-16T00:18:56;14.60;99.90
11304;DHT22;5707;49.588;12.148;2022-10-16T00:21:34;14.60;99.90
11304;DHT22;5707;49.588;12.148;2022-10-16T00:24:30;14.60;99.90
11304;DHT22;5707;49.588;12.148;2022-10-16T00:27:08;14.50;99.90
11304;DHT22;5707;49.588;12.148;2022-10-16T00:29:48;14.50;99.90
11304;DHT22;5707;49.588;12.148;2022-10-16T00:32:26;14.60;99.90
11304;DHT22;5707;49.588;12.148;2022-10-16T00:35:05;14.60;99.90
11304;DHT22;5707;49.588;12.148;2022-10-16T00:37:43;14.60;99.90
11304;DHT22;5707;49.588;12.148;2022-10-16T00:40:21;14.70;99.90
11304;DHT22;5707;49.588;12.148;2022-10-16T00:42:59;14.70;99.90
11304;DHT22;5707;49.588;12.148;2022-10-16T00:45:37;14.70;99.90
11304;DHT22;5707;49.588;12.148;2022-10-16T00:48:15;14.70;99.90
11304;DHT22;5707;49.588;12.148;2022-10-16T00:50:53;14.70;99.90
11304;DHT22;5707;49.588;12.148;2022-10-16T00:53:32;14.70;99.90
11304;DHT22;5707;49.588;12.148;2022-10-16T00:56:10;14.70;99.90
11304;DHT22;5707;49.588;12.148;2022-10-16T00:58:48;14.60;99.90
11304;DHT22;5707;49.588;12.148;2022-10-16T01:01:26;14.60;99.90
11304;DHT22;5707;49.588;12.148;2022-10-16T01:04:05;14.50;99.90
11304;DHT22;5707;49.588;12.148;2022-10-16T01:06:51;14.50;99.90
11304;DHT22;5707;49.588;12.148;2022-10-16T01:09:35;14.50;99.90
11304;DHT22;5707;49.588;12.148;2022-10-16T01:12:15;14.50;99.90
11304;DHT22;5707;49.588;12.148;2022-10-16T01:14:54;14.50;99.90
11304;DHT22;5707;49.588;12.148;2022-10-16T01:17:34;14.40;99.90
11304;DHT22;5707;49.588;12.148;2022-10-16T01:20:16;14.40;99.90
11304;DHT22;5707;49.588;12.148;2022-10-16T01:23:02;14.40;99.90
11304;DHT22;5707;49.588;12.148;2022-10-16T01:25:54;14.30;99.90
11304;DHT22;5707;49.588;12.148;2022-10-16T01:28:34;14.30;99.90
11304;DHT22;5707;49.588;12.148;2022-10-16T01:31:14;14.20;99.90
11304;DHT22;5707;49.588;12.148;2022-10-16T01:33:54;14.30;99.90
11304;DHT22;5707;49.588;12.148;2022-10-16T01:36:35;14.30;99.90
11304;DHT22;5707;49.588;12.148;2022-10-16T01:39:14;14.40;99.90
11304;DHT22;5707;49.588;12.148;2022-10-16T01:41:55;14.40;99.90
11304;DHT22;5707;49.588;12.148;2022-10-16T01:44:36;14.30;99.90
11304;DHT22;5707;49.588;12.148;2022-10-16T01:47:15;14.40;99.90
11304;DHT22;5707;49.588;12.148;2022-10-16T01:49:54;14.30;99.90
11304;DHT22;5707;49.588;12.148;2022-10-16T01:52:33;14.30;99.90
11304;DHT22;5707;49.588;12.148;2022-10-16T01:55:11;14.30;99.90
11304;DHT22;5707;49.588;12.148;2022-10-16T01:57:50;14.20;99.90
11304;DHT22;5707;49.588;12.148;2022-10-16T02:00:28;14.20;99.90
11304;DHT22;5707;49.588;12.148;2022-10-16T02:03:06;14.20;99.90
11304;DHT22;5707;49.588;12.148;2022-10-16T02:05:46;14.20;99.90
11304;DHT22;5707;49.588;12.148;2022-10-16T02:08:25;14.20;99.90
11304;DHT22;5707;49.588;12.148;2022-10-16T02:11:04;14.20;99.90
11304;DHT22;5707;49.588;12.148;2022-10-16T02:13:43;14.20;99.90
11304;DHT22;5707;49.588;12.148;2022-10-16T02:16:32;14.20;99.90
11304;DHT22;5707;49.588;12.148;2022-10-16T02:19:09;14.20;99.90
11304;DHT22;5707;49.588;12.148;2022-10-16T02:21:49;14.20;99.90
11304;DHT22;5707;49.588;12.148;2022-10-16T02:24:28;14.10;99.90
11304;DHT22;5707;49.588;12.148;2022-10-16T02:27:10;14.10;99.90
11304;DHT22;5707;49.588;12.148;2022-10-16T02:29:49;14.20;99.90
11304;DHT22;5707;49.588;12.148;2022-10-16T02:32:30;14.10;99.90
11304;DHT22;5707;49.588;12.148;2022-10-16T02:35:09;14.00;99.90
11304;DHT22;5707;49.588;12.148;2022-10-16T02:37:47;14.10;99.90
11304;DHT22;5707;49.588;12.148;2022-10-16T02:40:26;14.00;99.90
11304;DHT22;5707;49.588;12.148;2022-10-16T02:43:04;14.00;99.90
11304;DHT22;5707;49.588;12.148;2022-10-16T02:45:42;14.00;99.90
11304;DHT22;5707;49.588;12.148;2022-10-16T02:48:20;14.00;99.90
11304;DHT22;5707;49.588;12.148;2022-10-16T02:50:59;14.00;99.90
11304;DHT22;5707;49.588;12.148;2022-10-16T02:53:37;14.10;99.90
11304;DHT22;5707;49.588;12.148;2022-10-16T02:56:15;14.10;99.90
11304;DHT22;5707;49.588;12.148;2022-10-16T02:58:53;14.10;99.90
11304;DHT22;5707;49.588;12.148;2022-10-16T03:01:31;14.20;99.90
11304;DHT22;5707;49.588;12.148;2022-10-16T03:04:10;14.20;99.90
11304;DHT22;5707;49.588;12.148;2022-10-16T03:06:48;14.30;99.90
11304;DHT22;5707;49.588;12.148;2022-10-16T03:09:26;14.30;99.90
11304;DHT22;5707;49.588;12.148;2022-10-16T03:12:04;14.30;99.90
11304;DHT22;5707;49.588;12.148;2022-10-16T03:14:43;14.30;99.90
11304;DHT22;5707;49.588;12.148;2022-10-16T03:17:21;14.30;99.90
11304;DHT22;5707;49.588;12.148;2022-10-16T03:19:59;14.30;99.90
11304;DHT22;5707;49.588;12.148;2022-10-16T03:22:37;14.30;99.90
11304;DHT22;5707;49.588;12.148;2022-10-16T03:25:16;14.30;99.90
11304;DHT22;5707;49.588;12.148;2022-10-16T03:27:54;14.30;99.90
11304;DHT22;5707;49.588;12.148;2022-10-16T03:30:32;14.30;99.90
11304;DHT22;5707;49.588;12.148;2022-10-16T03:33:10;14.30;99.90
11304;DHT22;5707;49.588;12.148;2022-10-16T03:35:52;14.30;99.90
11304;DHT22;5707;49.588;12.148;2022-10-16T03:38:30;14.30;99.90
11304;DHT22;5707;49.588;12.148;2022-10-16T03:41:08;14.30;99.90
11304;DHT22;5707;49.588;12.148;2022-10-16T03:43:46;14.30;99.90
11304;DHT22;5707;49.588;12.148;2022-10-16T03:46:25;14.30;99.90
11304;DHT22;5707;49.588;12.148;2022-10-16T03:49:03;14.30;99.90
11304;DHT22;5707;49.588;12.148;2022-10-16T03:51:41;14.40;99.90
11304;DHT22;5707;49.588;12.148;2022-10-16T03:54:19;14.40;99.90
11304;DHT22;5707;49.588;12.148;2022-10-16T03:56:57;14.30;99.90
11304;DHT22;5707;49.588;12.148;2022-10-16T03:59:36;14.30;99.90
11304;DHT22;5707;49.588;12.148;2022-10-16T04:02:14;14.30;99.90
11304;DHT22;5707;49.588;12.148;2022-10-16T04:04:52;14.30;99.90
11304;DHT22;5707;49.588;12.148;2022-10-16T04:07:30;14.30;99.90
11304;DHT22;5707;49.588;12.148;2022-10-16T04:10:09;14.30;99.90
11304;DHT22;5707;49.588;12.148;2022-10-16T04:12:47;14.30;99.90
11304;DHT22;5707;49.588;12.148;2022-10-16T04:15:25;14.30;99.90
11304;DHT22;5707;49.588;12.148;2022-10-16T04:18:03;14.30;99.90
11304;DHT22;5707;49.588;12.148;2022-10-16T04:20:41;14.20;99.90
11304;DHT22;5707;49.588;12.148;2022-10-16T04:23:20;14.20;99.90
11304;DHT22;5707;49.588;12.148;2022-10-16T04:25:58;14.20;99.90
11304;DHT22;5707;49.588;12.148;2022-10-16T04:28:36;14.20;99.90
11304;DHT22;5707;49.588;12.148;2022-10-16T04:31:14;14.20;99.90
11304;DHT22;5707;49.588;12.148;2022-10-16T04:33:53;14.20;99.90
11304;DHT22;5707;49.588;12.148;2022-10-16T04:36:31;14.20;99.90
11304;DHT22;5707;49.588;12.148;2022-10-16T04:39:09;14.20;99.90
11304;DHT22;5707;49.588;12.148;2022-10-16T04:41:47;14.20;99.90
11304;DHT22;5707;49.588;12.148;2022-10-16T04:44:26;14.20;99.90
11304;DHT22;5707;49.588;12.148;2022-10-16T04:47:04;14.20;99.90
11304;DHT22;5707;49.588;12.148;2022-10-16T04:49:42;14.20;99.90
11304;DHT22;5707;49.588;12.148;2022-10-16T04:52:20;14.20;99.90
11304;DHT22;5707;49.588;12.148;2022-10-16T04:55:00;14.20;99.90
11304;DHT22;5707;49.588;12.148;2022-10-16T04:57:38;14.20;99.90
11304;DHT22;5707;49.588;12.148;2022-10-16T05:00:17;14.20;99.90
11304;DHT22;5707;49.588;12.148;2022-10-16T05:02:55;14.20;99.90
11304;DHT22;5707;49.588;12.148;2022-10-16T05:05:33;14.20;99.90
11304;DHT22;5707;49.588;12.148;2022-10-16T05:08:11;14.20;99.90
11304;DHT22;5707;49.588;12.148;2022-10-16T05:10:50;14.20;99.90
11304;DHT22;5707;49.588;12.148;2022-10-16T05:13:28;14.30;99.90
11304;DHT22;5707;49.588;12.148;2022-10-16T05:16:06;14.20;99.90
11304;DHT22;5707;49.588;12.148;2022-10-16T05:18:44;14.30;99.90
11304;DHT22;5707;49.588;12.148;2022-10-16T05:21:22;14.30;99.90
11304;DHT22;5707;49.588;12.148;2022-10-16T05:24:01;14.30;99.90
11304;DHT22;5707;49.588;12.148;2022-10-16T05:26:39;14.30;99.90
11304;DHT22;5707;49.588;12.148;2022-10-16T05:29:17;14.30;99.90
11304;DHT22;5707;49.588;12.148;2022-10-16T05:31:55;14.30;99.90
11304;DHT22;5707;49.588;12.148;2022-10-16T05:34:34;14.30;99.90
11304;DHT22;5707;49.588;12.148;2022-10-16T05:37:12;14.30;99.90
11304;DHT22;5707;49.588;12.148;2022-10-16T05:39:50;14.30;99.90
11304;DHT22;5707;49.588;12.148;2022-10-16T05:42:28;14.20;99.90
11304;DHT22;5707;49.588;12.148;2022-10-16T05:45:07;14.30;99.90
11304;DHT22;5707;49.588;12.148;2022-10-16T05:47:46;14.30;99.90
11304;DHT22;5707;49.588;12.148;2022-10-16T05:50:24;14.20;99.90
11304;DHT22;5707;49.588;12.148;2022-10-16T05:53:03;14.20;99.90
11304;DHT22;5707;49.588;12.148;2022-10-16T05:55:41;14.20;99.90
11304;DHT22;5707;49.588;12.148;2022-10-16T05:58:19;14.20;99.90
11304;DHT22;5707;49.588;12.148;2022-10-16T06:00:58;14.10;99.90
11304;DHT22;5707;49.588;12.148;2022-10-16T06:03:36;14.10;99.90
11304;DHT22;5707;49.588;12.148;2022-10-16T06:06:15;14.10;99.90
11304;DHT22;5707;49.588;12.148;2022-10-16T06:08:52;14.10;99.90
11304;DHT22;5707;49.588;12.148;2022-10-16T06:11:31;14.10;99.90
11304;DHT22;5707;49.588;12.148;2022-10-16T06:14:08;14.10;99.90
11304;DHT22;5707;49.588;12.148;2022-10-16T06:16:47;14.00;99.90
11304;DHT22;5707;49.588;12.148;2022-10-16T06:19:25;14.10;99.90
11304;DHT22;5707;49.588;12.148;2022-10-16T06:22:03;14.10;99.90
11304;DHT22;5707;49.588;12.148;2022-10-16T06:24:41;14.00;99.90
11304;DHT22;5707;49.588;12.148;2022-10-16T06:27:20;14.00;99.90
11304;DHT22;5707;49.588;12.148;2022-10-16T06:29:58;14.10;99.90
11304;DHT22;5707;49.588;12.148;2022-10-16T06:32:36;14.10;99.90
11304;DHT22;5707;49.588;12.148;2022-10-16T06:35:14;14.20;99.90
11304;DHT22;5707;49.588;12.148;2022-10-16T06:37:53;14.10;99.90
11304;DHT22;5707;49.588;12.148;2022-10-16T06:40:31;14.20;99.90
11304;DHT22;5707;49.588;12.148;2022-10-16T06:43:09;14.20;99.90
11304;DHT22;5707;49.588;12.148;2022-10-16T06:45:51;14.30;99.90
11304;DHT22;5707;49.588;12.148;2022-10-16T06:48:29;14.50;99.90
11304;DHT22;5707;49.588;12.148;2022-10-16T06:51:08;14.70;99.90
11304;DHT22;5707;49.588;12.148;2022-10-16T06:53:47;14.90;99.90
11304;DHT22;5707;49.588;12.148;2022-10-16T06:56:27;15.00;99.90
11304;DHT22;5707;49.588;12.148;2022-10-16T06:59:08;15.10;99.90
11304;DHT22;5707;49.588;12.148;2022-10-16T07:01:46;15.30;99.90
11304;DHT22;5707;49.588;12.148;2022-10-16T07:04:24;15.40;99.90
11304;DHT22;5707;49.588;12.148;2022-10-16T07:07:03;15.60;99.90
11304;DHT22;5707;49.588;12.148;2022-10-16T07:09:41;15.80;99.90
11304;DHT22;5707;49.588;12.148;2022-10-16T07:12:19;16.00;99.90
11304;DHT22;5707;49.588;12.148;2022-10-16T07:14:57;16.30;99.90
11304;DHT22;5707;49.588;12.148;2022-10-16T07:17:36;16.60;99.90
11304;DHT22;5707;49.588;12.148;2022-10-16T07:20:14;16.80;99.90
11304;DHT22;5707;49.588;12.148;2022-10-16T07:22:52;16.90;99.90
11304;DHT22;5707;49.588;12.148;2022-10-16T07:25:30;16.90;99.90
11304;DHT22;5707;49.588;12.148;2022-10-16T07:28:09;16.90;99.90
11304;DHT22;5707;49.588;12.148;2022-10-16T07:30:47;17.00;99.90
11304;DHT22;5707;49.588;12.148;2022-10-16T07:33:25;17.20;99.90
11304;DHT22;5707;49.588;12.148;2022-10-16T07:36:03;17.20;99.90
11304;DHT22;5707;49.588;12.148;2022-10-16T07:38:41;17.20;99.90
11304;DHT22;5707;49.588;12.148;2022-10-16T07:41:20;17.30;99.90
11304;DHT22;5707;49.588;12.148;2022-10-16T07:43:58;17.40;99.90
11304;DHT22;5707;49.588;12.148;2022-10-16T07:46:36;17.50;99.90
11304;DHT22;5707;49.588;12.148;2022-10-16T07:49:14;17.70;99.90
11304;DHT22;5707;49.588;12.148;2022-10-16T07:51:52;17.90;99.90
11304;DHT22;5707;49.588;12.148;2022-10-16T07:54:31;18.10;99.90
11304;DHT22;5707;49.588;12.148;2022-10-16T07:57:09;18.20;99.90
11304;DHT22;5707;49.588;12.148;2022-10-16T07:59:47;18.20;99.90
11304;DHT22;5707;49.588;12.148;2022-10-16T08:02:26;18.20;99.90
11304;DHT22;5707;49.588;12.148;2022-10-16T08:05:04;18.20;99.90
11304;DHT22;5707;49.588;12.148;2022-10-16T08:07:42;18.10;99.90
11304;DHT22;5707;49.588;12.148;2022-10-16T08:10:21;18.00;99.90
11304;DHT22;5707;49.588;12.148;2022-10-16T08:12:58;17.90;99.90
11304;DHT22;5707;49.588;12.148;2022-10-16T08:15:37;17.90;99.90
11304;DHT22;5707;49.588;12.148;2022-10-16T08:18:15;18.00;99.90
11304;DHT22;5707;49.588;12.148;2022-10-16T08:20:56;18.10;99.90
11304;DHT22;5707;49.588;12.148;2022-10-16T08:23:34;18.30;99.90
11304;DHT22;5707;49.588;12.148;2022-10-16T08:26:13;18.40;99.90
11304;DHT22;5707;49.588;12.148;2022-10-16T08:28:51;18.60;99.90
11304;DHT22;5707;49.588;12.148;2022-10-16T08:31:29;18.70;99.90
11304;DHT22;5707;49.588;12.148;2022-10-16T08:34:07;18.70;99.90
11304;DHT22;5707;49.588;12.148;2022-10-16T08:36:46;18.60;99.90
11304;DHT22;5707;49.588;12.148;2022-10-16T08:39:24;18.50;99.90
11304;DHT22;5707;49.588;12.148;2022-10-16T08:42:08;18.30;99.90
11304;DHT22;5707;49.588;12.148;2022-10-16T08:47:51;18.40;99.90
11304;DHT22;5707;49.588;12.148;2022-10-16T08:50:32;18.70;99.90
11304;DHT22;5707;49.588;12.148;2022-10-16T08:53:15;19.00;99.90
11304;DHT22;5707;49.588;12.148;2022-10-16T08:55:53;19.30;99.90
11304;DHT22;5707;49.588;12.148;2022-10-16T08:58:31;19.40;99.90
11304;DHT22;5707;49.588;12.148;2022-10-16T09:01:12;19.60;99.90
11304;DHT22;5707;49.588;12.148;2022-10-16T09:03:54;19.60;99.90
11304;DHT22;5707;49.588;12.148;2022-10-16T09:06:41;19.60;99.90
11304;DHT22;5707;49.588;12.148;2022-10-16T09:09:38;19.40;99.90
11304;DHT22;5707;49.588;12.148;2022-10-16T09:12:19;19.20;99.90
11304;DHT22;5707;49.588;12.148;2022-10-16T09:15:00;18.80;99.90
11304;DHT22;5707;49.588;12.148;2022-10-16T09:17:41;18.50;99.90
11304;DHT22;5707;49.588;12.148;2022-10-16T09:20:28;18.20;99.90
11304;DHT22;5707;49.588;12.148;2022-10-16T09:26:01;18.20;99.90
11304;DHT22;5707;49.588;12.148;2022-10-16T09:28:39;18.50;99.90
11304;DHT22;5707;49.588;12.148;2022-10-16T09:31:18;18.90;99.90
11304;DHT22;5707;49.588;12.148;2022-10-16T09:33:57;19.00;99.90
11304;DHT22;5707;49.588;12.148;2022-10-16T09:36:36;19.00;99.90
11304;DHT22;5707;49.588;12.148;2022-10-16T09:39:15;18.80;99.90
11304;DHT22;5707;49.588;12.148;2022-10-16T09:41:53;18.60;99.90
11304;DHT22;5707;49.588;12.148;2022-10-16T09:44:32;18.40;99.90
11304;DHT22;5707;49.588;12.148;2022-10-16T09:47:14;18.40;99.90
11304;DHT22;5707;49.588;12.148;2022-10-16T09:49:54;18.30;99.90
11304;DHT22;5707;49.588;12.148;2022-10-16T09:52:31;18.40;99.90
11304;DHT22;5707;49.588;12.148;2022-10-16T09:55:14;18.30;99.90
11304;DHT22;5707;49.588;12.148;2022-10-16T09:57:53;18.40;99.90
11304;DHT22;5707;49.588;12.148;2022-10-16T10:00:31;18.40;99.90
11304;DHT22;5707;49.588;12.148;2022-10-16T10:03:10;18.60;99.90
11304;DHT22;5707;49.588;12.148;2022-10-16T10:05:48;18.70;99.90
11304;DHT22;5707;49.588;12.148;2022-10-16T10:08:27;18.80;99.90
11304;DHT22;5707;49.588;12.148;2022-10-16T10:11:05;18.90;99.90
11304;DHT22;5707;49.588;12.148;2022-10-16T10:13:43;19.00;99.90
11304;DHT22;5707;49.588;12.148;2022-10-16T10:16:24;19.10;99.90
11304;DHT22;5707;49.588;12.148;2022-10-16T10:19:01;19.10;99.90
11304;DHT22;5707;49.588;12.148;2022-10-16T10:21:40;19.00;99.90
11304;DHT22;5707;49.588;12.148;2022-10-16T10:24:19;19.20;99.90
11304;DHT22;5707;49.588;12.148;2022-10-16T10:26:57;19.20;99.90
11304;DHT22;5707;49.588;12.148;2022-10-16T10:29:41;19.20;99.90
11304;DHT22;5707;49.588;12.148;2022-10-16T10:32:23;19.30;99.90
11304;DHT22;5707;49.588;12.148;2022-10-16T10:35:12;19.70;99.90
11304;DHT22;5707;49.588;12.148;2022-10-16T10:37:54;20.30;99.90
11304;DHT22;5707;49.588;12.148;2022-10-16T10:40:38;20.70;99.90
11304;DHT22;5707;49.588;12.148;2022-10-16T10:46:12;21.40;99.90
11304;DHT22;5707;49.588;12.148;2022-10-16T10:48:54;21.50;99.90
11304;DHT22;5707;49.588;12.148;2022-10-16T10:51:37;21.80;99.90
11304;DHT22;5707;49.588;12.148;2022-10-16T10:54:19;22.00;99.90
11304;DHT22;5707;49.588;12.148;2022-10-16T10:56:59;21.80;99.90
11304;DHT22;5707;49.588;12.148;2022-10-16T10:59:45;21.60;99.90
11304;DHT22;5707;49.588;12.148;2022-10-16T11:02:29;21.40;99.90
11304;DHT22;5707;49.588;12.148;2022-10-16T11:05:19;21.40;99.90
11304;DHT22;5707;49.588;12.148;2022-10-16T11:08:00;21.60;99.90
11304;DHT22;5707;49.588;12.148;2022-10-16T11:10:40;22.10;99.90
11304;DHT22;5707;49.588;12.148;2022-10-16T11:13:22;22.20;99.90
11304;DHT22;5707;49.588;12.148;2022-10-16T11:16:01;22.00;99.90
11304;DHT22;5707;49.588;12.148;2022-10-16T11:18:42;21.80;99.90
11304;DHT22;5707;49.588;12.148;2022-10-16T11:21:21;21.50;99.90
11304;DHT22;5707;49.588;12.148;2022-10-16T11:24:01;21.00;99.90
11304;DHT22;5707;49.588;12.148;2022-10-16T11:26:41;20.70;99.90
11304;DHT22;5707;49.588;12.148;2022-10-16T11:29:21;20.50;99.90
11304;DHT22;5707;49.588;12.148;2022-10-16T11:32:01;20.50;99.90
11304;DHT22;5707;49.588;12.148;2022-10-16T11:34:43;20.40;99.90
11304;DHT22;5707;49.588;12.148;2022-10-16T11:37:23;20.30;99.90
11304;DHT22;5707;49.588;12.148;2022-10-16T11:40:05;20.20;99.90
11304;DHT22;5707;49.588;12.148;2022-10-16T11:42:50;20.20;99.90
11304;DHT22;5707;49.588;12.148;2022-10-16T11:45:32;20.40;99.90
11304;DHT22;5707;49.588;12.148;2022-10-16T11:48:12;20.70;99.90
11304;DHT22;5707;49.588;12.148;2022-10-16T11:50:53;21.00;99.90
11304;DHT22;5707;49.588;12.148;2022-10-16T11:53:35;21.20;99.90
11304;DHT22;5707;49.588;12.148;2022-10-16T11:56:16;21.20;99.90
11304;DHT22;5707;49.588;12.148;2022-10-16T11:58:55;21.20;99.90
11304;DHT22;5707;49.588;12.148;2022-10-16T12:01:36;21.30;99.90
11304;DHT22;5707;49.588;12.148;2022-10-16T12:04:17;21.40;99.90
11304;DHT22;5707;49.588;12.148;2022-10-16T12:06:58;21.80;99.90
11304;DHT22;5707;49.588;12.148;2022-10-16T12:09:40;22.00;99.90
11304;DHT22;5707;49.588;12.148;2022-10-16T12:12:25;22.00;99.90
11304;DHT22;5707;49.588;12.148;2022-10-16T12:15:03;21.90;99.90
11304;DHT22;5707;49.588;12.148;2022-10-16T12:17:40;21.90;99.90
11304;DHT22;5707;49.588;12.148;2022-10-16T12:20:26;21.70;99.90
11304;DHT22;5707;49.588;12.148;2022-10-16T12:23:06;21.50;99.90
11304;DHT22;5707;49.588;12.148;2022-10-16T12:25:53;21.30;99.90
11304;DHT22;5707;49.588;12.148;2022-10-16T12:28:31;21.30;99.90
11304;DHT22;5707;49.588;12.148;2022-10-16T12:31:09;21.70;99.90
11304;DHT22;5707;49.588;12.148;2022-10-16T12:33:57;22.00;99.90
11304;DHT22;5707;49.588;12.148;2022-10-16T12:36:35;22.20;99.90
11304;DHT22;5707;49.588;12.148;2022-10-16T12:39:19;22.20;99.90
11304;DHT22;5707;49.588;12.148;2022-10-16T12:42:03;22.10;99.90
11304;DHT22;5707;49.588;12.148;2022-10-16T12:44:41;22.20;99.90
11304;DHT22;5707;49.588;12.148;2022-10-16T12:47:23;22.30;99.90
11304;DHT22;5707;49.588;12.148;2022-10-16T12:50:03;22.30;99.90
11304;DHT22;5707;49.588;12.148;2022-10-16T12:52:40;22.30;99.90
11304;DHT22;5707;49.588;12.148;2022-10-16T12:55:21;22.30;99.90
11304;DHT22;5707;49.588;12.148;2022-10-16T12:58:03;22.10;99.90
11304;DHT22;5707;49.588;12.148;2022-10-16T13:00:45;21.90;99.90
11304;DHT22;5707;49.588;12.148;2022-10-16T13:03:37;21.50;99.90
11304;DHT22;5707;49.588;12.148;2022-10-16T13:06:22;21.20;99.90
11304;DHT22;5707;49.588;12.148;2022-10-16T13:11:55;20.70;99.90
11304;DHT22;5707;49.588;12.148;2022-10-16T13:14:43;20.50;99.90
11304;DHT22;5707;49.588;12.148;2022-10-16T13:17:27;20.40;99.90
11304;DHT22;5707;49.588;12.148;2022-10-16T13:20:10;20.30;99.90
11304;DHT22;5707;49.588;12.148;2022-10-16T13:22:51;20.20;99.90
11304;DHT22;5707;49.588;12.148;2022-10-16T13:25:36;20.20;99.90
11304;DHT22;5707;49.588;12.148;2022-10-16T13:28:16;20.20;99.90
11304;DHT22;5707;49.588;12.148;2022-10-16T13:30:56;20.20;99.90
11304;DHT22;5707;49.588;12.148;2022-10-16T13:33:34;20.20;99.90
11304;DHT22;5707;49.588;12.148;2022-10-16T13:36:18;20.10;99.90
11304;DHT22;5707;49.588;12.148;2022-10-16T13:39:10;20.20;99.90
11304;DHT22;5707;49.588;12.148;2022-10-16T13:41:48;20.20;99.90
11304;DHT22;5707;49.588;12.148;2022-10-16T13:44:36;20.20;99.90
11304;DHT22;5707;49.588;12.148;2022-10-16T13:47:18;20.20;99.90
11304;DHT22;5707;49.588;12.148;2022-10-16T13:50:02;20.20;99.90
11304;DHT22;5707;49.588;12.148;2022-10-16T13:52:40;20.20;99.90
11304;DHT22;5707;49.588;12.148;2022-10-16T13:55:18;20.10;99.90
11304;DHT22;5707;49.588;12.148;2022-10-16T13:58:05;20.10;99.90
11304;DHT22;5707;49.588;12.148;2022-10-16T14:00:53;20.10;99.90
11304;DHT22;5707;49.588;12.148;2022-10-16T14:03:30;19.90;99.90
11304;DHT22;5707;49.588;12.148;2022-10-16T14:06:11;19.90;99.90
11304;DHT22;5707;49.588;12.148;2022-10-16T14:08:51;19.90;99.90
11304;DHT22;5707;49.588;12.148;2022-10-16T14:11:31;19.80;99.90
11304;DHT22;5707;49.588;12.148;2022-10-16T14:14:11;19.80;99.90
11304;DHT22;5707;49.588;12.148;2022-10-16T14:16:48;19.80;99.90
11304;DHT22;5707;49.588;12.148;2022-10-16T14:19:26;19.70;99.90
11304;DHT22;5707;49.588;12.148;2022-10-16T14:22:11;19.70;99.90
11304;DHT22;5707;49.588;12.148;2022-10-16T14:24:57;19.70;99.90
11304;DHT22;5707;49.588;12.148;2022-10-16T14:27:35;19.70;99.90
11304;DHT22;5707;49.588;12.148;2022-10-16T14:30:16;19.60;99.90
11304;DHT22;5707;49.588;12.148;2022-10-16T14:32:54;19.60;99.90
11304;DHT22;5707;49.588;12.148;2022-10-16T14:35:32;19.60;99.90
11304;DHT22;5707;49.588;12.148;2022-10-16T14:38:17;19.60;99.90
11304;DHT22;5707;49.588;12.148;2022-10-16T14:40:56;19.50;99.90
11304;DHT22;5707;49.588;12.148;2022-10-16T14:43:34;19.50;99.90
11304;DHT22;5707;49.588;12.148;2022-10-16T14:46:13;19.40;99.90
11304;DHT22;5707;49.588;12.148;2022-10-16T14:48:51;19.30;99.90
11304;DHT22;5707;49.588;12.148;2022-10-16T14:51:30;19.30;99.90
11304;DHT22;5707;49.588;12.148;2022-10-16T14:54:09;19.20;99.90
11304;DHT22;5707;49.588;12.148;2022-10-16T14:56:48;19.20;99.90
11304;DHT22;5707;49.588;12.148;2022-10-16T14:59:27;19.10;99.90
11304;DHT22;5707;49.588;12.148;2022-10-16T15:02:09;19.00;99.90
11304;DHT22;5707;49.588;12.148;2022-10-16T15:04:53;18.80;99.90
11304;DHT22;5707;49.588;12.148;2022-10-16T15:07:31;18.80;99.90
11304;DHT22;5707;49.588;12.148;2022-10-16T15:10:09;18.70;99.90
11304;DHT22;5707;49.588;12.148;2022-10-16T15:12:48;18.60;99.90
11304;DHT22;5707;49.588;12.148;2022-10-16T15:15:26;18.50;99.90
11304;DHT22;5707;49.588;12.148;2022-10-16T15:18:07;18.50;99.90
11304;DHT22;5707;49.588;12.148;2022-10-16T15:20:47;18.50;99.90
11304;DHT22;5707;49.588;12.148;2022-10-16T15:23:25;18.40;99.90
11304;DHT22;5707;49.588;12.148;2022-10-16T15:26:03;18.30;99.90
11304;DHT22;5707;49.588;12.148;2022-10-16T15:28:42;18.30;99.90
11304;DHT22;5707;49.588;12.148;2022-10-16T15:31:20;18.20;99.90
11304;DHT22;5707;49.588;12.148;2022-10-16T15:33:58;18.10;99.90
11304;DHT22;5707;49.588;12.148;2022-10-16T15:36:40;18.00;99.90
11304;DHT22;5707;49.588;12.148;2022-10-16T15:39:18;17.90;99.90
11304;DHT22;5707;49.588;12.148;2022-10-16T15:41:56;17.80;99.90
11304;DHT22;5707;49.588;12.148;2022-10-16T15:44:34;17.70;99.90
11304;DHT22;5707;49.588;12.148;2022-10-16T15:47:13;17.50;99.90
11304;DHT22;5707;49.588;12.148;2022-10-16T15:49:51;17.30;99.90
11304;DHT22;5707;49.588;12.148;2022-10-16T15:52:29;17.10;99.90
11304;DHT22;5707;49.588;12.148;2022-10-16T15:55:08;17.00;99.90
11304;DHT22;5707;49.588;12.148;2022-10-16T15:57:45;16.80;99.90
11304;DHT22;5707;49.588;12.148;2022-10-16T16:00:24;16.60;99.90
11304;DHT22;5707;49.588;12.148;2022-10-16T16:03:02;16.40;99.90
11304;DHT22;5707;49.588;12.148;2022-10-16T16:05:40;16.30;99.90
11304;DHT22;5707;49.588;12.148;2022-10-16T16:08:18;16.10;99.90
11304;DHT22;5707;49.588;12.148;2022-10-16T16:11:00;16.00;99.90
11304;DHT22;5707;49.588;12.148;2022-10-16T16:13:38;15.90;99.90
11304;DHT22;5707;49.588;12.148;2022-10-16T16:16:16;15.80;99.90
11304;DHT22;5707;49.588;12.148;2022-10-16T16:18:56;15.60;99.90
11304;DHT22;5707;49.588;12.148;2022-10-16T16:21:34;15.40;99.90
11304;DHT22;5707;49.588;12.148;2022-10-16T16:24:12;15.40;99.90
11304;DHT22;5707;49.588;12.148;2022-10-16T16:26:51;15.30;99.90
11304;DHT22;5707;49.588;12.148;2022-10-16T16:29:31;15.20;99.90
11304;DHT22;5707;49.588;12.148;2022-10-16T16:32:09;15.20;99.90
11304;DHT22;5707;49.588;12.148;2022-10-16T16:34:47;15.20;99.90
11304;DHT22;5707;49.588;12.148;2022-10-16T16:37:25;15.20;99.90
11304;DHT22;5707;49.588;12.148;2022-10-16T16:40:04;15.20;99.90
11304;DHT22;5707;49.588;12.148;2022-10-16T16:42:42;15.30;99.90
11304;DHT22;5707;49.588;12.148;2022-10-16T16:45:20;15.30;99.90
11304;DHT22;5707;49.588;12.148;2022-10-16T16:47:58;15.40;99.90
11304;DHT22;5707;49.588;12.148;2022-10-16T16:50:36;15.40;99.90
11304;DHT22;5707;49.588;12.148;2022-10-16T16:53:15;15.50;99.90
11304;DHT22;5707;49.588;12.148;2022-10-16T16:55:53;15.40;99.90
11304;DHT22;5707;49.588;12.148;2022-10-16T16:58:31;15.40;99.90